Station: Port Lincoln Airport

  Atmospheric Gas Attenuation - ITU Rec 676-11   --------------- db/100km ---------------
Date Time Temp RH % AH g/m3 Dew Point Wind Direction Speed kph Gust kph Barometer mB Rainfall Since 9am 24GHz 47GHz 76GHz 122GHz 134GHz 241GHz
24 20:10 28.8 43 12.22 15.3 9 9 1002.2 0 26.4 26.7 45.2 119.2 121.9 422.8
24 20:00 29.5 43 12.69 15.6 4 9 1002 0 27.4 27.2 46.5 122.8 126.5 438.8
24 19:50 29 46 13.21 16.2 6 6 1002.2 0 28.5 28.1 48.8 128.8 133.7 463.9
24 19:40 29.3 42 12.26 15.4 11 13 1002 0 26.5 26.6 45.1 118.9 121.6 421.7
24 19:30 30.6 35 10.97 13.8 13 17 1002 0 23.7 24.4 39.8 104.9 104.8 362.9
24 19:20 33.2 28 10.08 12.2 11 13 1001.9 0 21.8 22.5 35.7 93.8 91.9 317.9
24 19:10 32.1 33 11.2 13.8 4 6 1001.7 0 24.1 24.3 39.9 105.0 105.4 365.2
24 19:00 31.9 32 10.75 13.6 6 11 1001.7 0 23.2 23.7 38.4 101.2 100.6 348.6
24 18:50 32.1 33 11.2 13.8 7 9 1001.5 0 24.1 24.3 39.9 105.0 105.4 365.1
24 18:40 31.6 32 10.58 12.9 6 7 1001.6 0 22.9 23.6 38.0 100.1 99.1 343.2
24 18:30 30.8 34 10.77 13.1 11 15 1001.7 0 23.3 24.0 39.0 102.8 102.2 354.1
24 18:20 31.8 31 10.36 12.6 11 11 1001.6 0 22.4 23.2 37.2 97.9 96.5 333.9
24 18:10 31.7 32 10.63 13 19 20 1001.4 0 23.0 23.6 38.1 100.4 99.5 344.7
24 18:00 33.6 26 9.56 11.5 13 17 1001.5 0 20.7 21.7 33.8 88.9 85.9 297.2
24 17:50 32.5 29 10.06 12.2 15 15 1001.6 0 21.7 22.7 35.9 94.4 92.4 319.8
24 17:40 33.4 28 10.18 12.9 15 17 1001.6 0 21.9 22.6 35.9 94.4 92.7 320.8
24 17:30 32.3 30 10.29 12.5 19 20 1001.6 0 22.2 23.0 36.7 96.7 95.1 329.3
24 17:20 32.4 30 10.35 12.6 19 22 1001.7 0 22.4 23.1 36.9 97.1 95.7 331.2
24 17:10 32.6 27 9.41 11.2 22 24 1001.7 0 20.4 21.8 33.8 88.7 85.4 295.3
24 17:00 34.6 24 9.3 11.1 24 28 1001.7 0 20.1 21.2 32.6 85.7 82.3 284.4
24 16:50 33.3 27 9.77 11.8 24 26 1001.9 0 21.1 22.1 34.6 91.1 88.5 306.1
24 16:40 34.5 26 10.02 12.2 24 26 1002 0 21.6 22.1 34.9 91.9 89.8 310.8
24 16:30 34.2 25 9.48 11.4 24 28 1002.1 0 20.5 21.5 33.3 87.7 84.5 292.3
24 16:20 33.9 25 9.34 11.1 26 28 1002.2 0 20.2 21.4 33.0 86.8 83.4 288.3
24 16:10 33.8 27 10.03 12.2 26 28 1002.3 0 21.6 22.3 35.3 92.8 90.7 313.9
24 16:00 33.4 28 10.18 12.4 28 32 1002.5 0 21.9 22.6 35.9 94.5 92.7 321.0
24 15:50 33.4 28 10.18 12.4 30 32 1002.5 0 21.9 22.6 35.9 94.5 92.7 321.0
24 15:40 33.7 28 10.35 12.7 24 28 1002.6 0 22.3 22.8 36.3 95.7 94.2 326.2
24 15:30 34.8 26 10.18 13 28 33 1002.7 0 21.9 22.3 35.3 93.0 91.2 315.7
24 15:20 34.2 26 9.86 12 26 33 1002.8 0 21.2 22.0 34.6 90.9 88.5 306.3
24 15:10 34 29 10.89 13.5 30 35 1003 0 23.4 23.4 38.0 100.0 99.7 345.4
24 15:00 34.4 26 9.97 12.1 33 39 1003 0 21.5 22.1 34.8 91.7 89.5 309.6
24 14:50 33.7 28 10.35 12.7 35 39 1003.1 0 22.3 22.8 36.4 95.7 94.3 326.4
24 14:40 33.8 27 10.03 12.7 37 43 1003.2 0 21.6 22.4 35.3 92.8 90.8 314.1
24 14:30 33.2 31 11.16 13.8 35 43 1003.4 0 24.0 24.0 39.3 103.5 103.7 359.2
24 14:20 32.7 31 10.87 13.4 37 41 1003.4 0 23.4 23.7 38.5 101.5 101.1 350.2
24 14:10 31.6 33 10.91 13.4 33 39 1003.6 0 23.5 24.1 39.2 103.2 102.9 356.6
24 14:00 32.1 30 10.19 12.8 39 44 1003.6 0 22.0 23.0 36.6 96.2 94.4 326.8
24 13:50 33.1 29 10.38 12.7 39 46 1003.6 0 22.4 23.0 36.7 96.7 95.3 330.0
24 13:40 33.1 29 10.38 12.7 43 48 1003.4 0 22.4 23.0 36.7 96.7 95.3 330.0
24 13:30 32.9 30 10.63 13 35 43 1003.5 0 22.9 23.4 37.6 99.1 98.2 340.3
24 13:20 34.2 28 10.62 13.1 30 35 1003.6 0 22.8 23.0 37.0 97.5 96.6 334.6
24 13:10 33.8 26 9.66 11.6 33 39 1003.6 0 20.9 21.9 34.1 89.7 86.9 300.6
24 13:00 33.2 25 9 10.5 35 46 1003.4 0 19.5 21.2 32.3 84.8 80.7 278.7
24 12:50 34 26 9.76 11.8 33 39 1003.5 0 21.1 22.0 34.4 90.4 87.7 303.5
24 12:40 33.8 25 9.29 11 26 28 1003.6 0 20.1 21.4 33.0 86.6 83.1 287.2
24 12:30 36.1 15 6.28 5.4 20 30 1003.6 0 13.9 17.4 23.4 61.1 52.2 179.0
24 12:20 36.2 18 7.58 8.1 20 24 1003.7 0 16.5 18.8 27.0 70.8 64.1 220.9
24 12:10 36 18 7.5 8 20 24 1003.7 0 16.4 18.8 26.8 70.3 63.5 218.8
24 12:00 35.5 20 8.12 9.1 22 32 1003.8 0 17.6 19.6 28.8 75.5 69.9 240.9
24 11:50 35.7 20 8.2 9.3 24 30 1003.8 0 17.8 19.7 29.0 76.0 70.5 243.1
24 11:40 35.1 22 8.75 10.2 30 33 1003.7 0 18.9 20.5 30.8 80.9 76.4 263.8
24 11:30 34.7 21 8.18 9.2 28 35 1003.9 0 17.8 19.8 29.3 76.7 71.1 245.3
24 11:20 36.5 15 6.41 5.7 22 26 1003.7 0 14.1 17.4 23.7 61.8 53.2 182.3
24 11:10 34.7 22 8.57 9.9 17 19 1003.6 0 18.6 20.3 30.4 79.8 75.0 258.8
24 11:00 34.5 23 8.86 10.4 19 24 1003.6 0 19.2 20.7 31.4 82.4 78.0 269.6
24 10:50 34.9 21 8.26 9.3 17 19 1003.5 0 17.9 19.9 29.4 77.2 71.7 247.4
24 10:40 33.3 24 8.68 10 13 13 1003.5 0 18.9 20.8 31.3 82.1 77.3 267.0
24 10:30 32.9 24 8.5 9.7 9 19 1004 0 18.5 20.6 30.9 81.0 75.9 261.9
24 10:20 31.5 28 9.21 10.8 6 9 1003.5 0 20.0 21.8 33.6 88.3 84.6 292.3
24 10:10 30.6 30 9.4 11.1 6 7 1003.6 0 20.5 22.3 34.6 91.0 87.6 302.6
24 10:00 30.4 33 10.23 12.3 7 11 1003.8 0 22.2 23.5 37.5 98.6 96.9 335.2
24 09:50 30.3 29 8.94 10.3 7 9 1003.9 0 19.5 21.8 33.3 87.3 83.0 286.5
24 09:40 30.1 27 8.23 9.1 7 9 1004 0 18.1 20.9 31.1 81.5 75.7 261.0
24 09:30 29.6 29 8.61 9.7 6 9 1003.9 0 18.9 21.5 32.5 85.2 80.2 276.6
24 09:20 29.2 29 8.42 9.3 4 6 1004 0 18.5 21.3 32.0 84.0 78.6 270.8
24 09:10 29.3 28 8.18 8.9 7 7 1004.1 0 18.0 21.0 31.2 81.8 75.9 261.6
24 09:00 30 23 6.98 6.6 6 15 1003.9 0 15.5 19.3 27.2 71.2 63.0 216.4
24 08:50 29.6 25 7.42 7.5 7 9 1003.9 0 16.4 20.0 28.7 75.2 67.8 233.1
24 08:40 29.7 24 7.16 7 11 13 1003.8 0 15.9 19.6 27.9 72.9 65.1 223.6
24 08:30 30 22 6.67 6 9 13 1003.9 0 14.9 19.0 26.3 68.7 60.0 205.6
24 08:20 29.8 22 6.6 5.8 9 11 1004 0 14.7 18.9 26.2 68.3 59.4 203.7
24 08:10 29.6 22 6.53 5.6 17 20 1004.1 0 14.6 18.9 26.0 67.9 58.9 201.8
24 08:00 29.5 21 6.2 4.9 9 15 1004 0 13.9 18.5 25.1 65.4 55.7 190.6
24 07:50 29.7 21 6.27 5.1 7 9 1004.3 0 14.1 18.5 25.2 65.8 56.3 192.6
24 07:40 30.3 19 5.86 4.1 15 17 1004 0 13.2 17.9 23.8 62.1 51.9 177.3
24 07:30 28.3 22 6.08 4.6 7 19 1003.6 0 13.7 18.6 25.0 65.3 55.3 189.1
24 07:20 27.7 24 6.42 5.3 15 17 1003.1 0 14.4 19.1 26.2 68.5 59.1 202.3
24 07:10 27.3 23 6.02 4.4 6 7 1003.7 0 13.6 18.7 25.2 65.6 55.4 189.2
24 07:00 25.9 29 7.02 6.5 6 17 1003.8 0 15.8 20.2 28.7 75.1 66.7 228.8
24 06:50 25.7 31 7.42 7.3 11 11 1003.4 0 16.6 20.8 30.1 78.7 71.1 244.2
24 06:40 26.1 32 7.83 8.1 4 7 1003.3 0 17.4 21.2 31.2 81.9 75.1 258.4
24 06:30 26.3 33 8.17 8.8 9 11 1003.3 0 18.1 21.7 32.3 84.7 78.6 270.7
24 06:20 27 31 7.98 8.4 7 9 1003.3 0 17.7 21.2 31.4 82.3 75.9 261.3
24 06:10 27.7 29 7.76 8.1 9 9 1003.3 0 17.2 20.8 30.4 79.7 72.9 250.9
24 06:00 27.1 32 8.28 9 7 11 1003.3 0 18.3 21.6 32.3 84.8 79.0 272.3
24 05:50 28.4 29 8.06 8.7 7 9 1003 0 17.8 21.0 31.1 81.6 75.4 259.8
24 05:40 29 27 7.76 8.1 9 9 1002.9 0 17.2 20.5 29.9 78.5 71.7 246.9
24 05:30 29.3 27 7.88 8.4 2 6 1003 0 17.4 20.6 30.2 79.2 72.7 250.4
24 05:20 29.7 25 7.46 7.6 6 7 1002.8 0 16.5 20.0 28.8 75.3 68.1 234.0
24 04:50 30.7 23 7.24 7.2 19 20 1002.9 0 16.0 19.5 27.8 72.6 65.0 223.5
24 04:40 31.5 19 6.25 5.1 17 20 1002.9 0 14.0 18.1 24.6 64.2 54.8 187.7
24 04:30 32.3 17 5.83 4.2 19 37 1003.1 0 13.1 17.5 23.2 60.4 50.4 172.1
24 04:20 29.6 26 7.72 8.1 13 19 1003 0 17.1 20.3 29.6 77.6 70.8 243.7
24 04:10 29 27 7.76 8.1 9 11 1003.2 0 17.2 20.5 30.0 78.5 71.8 247.0
24 04:00 26.8 35 8.91 10.1 9 11 1003.4 0 19.6 22.5 34.6 90.8 86.3 297.6
24 03:50 26.5 38 9.51 11 7 9 1003.2 0 20.9 23.5 36.7 96.6 93.3 322.4
24 03:40 26.6 40 10.07 11.9 13 15 1003.3 0 22.1 24.2 38.7 101.7 99.7 344.6
24 03:30 25.7 42 10.06 11.8 13 19 1003 0 22.1 24.4 39.0 102.7 100.7 348.0
24 03:20 25.3 45 10.53 12.5 13 13 1003.3 0 23.1 25.2 40.9 107.8 106.8 369.3

Last Refresh: 24-Jan-2021 20:21:34

Most of the information presented on this site is sourced from the Bureau of Meteorology.  Copyright in all material sourced from the Bureau of Meteorology resides with the Commonwealth of Australia.